Time;durP1;ratioP1;P1;durP2;ratioP2;P2;SDS_P1;SDS_P2;PMS_P1;PMS_P2;Temp;Humidity;BMP_temperature;BMP_pressure;BME280_temperature;BME280_humidity;BME280_pressure;Samples;Min_cycle;Max_cycle;Signal;HPM_P1;HPM_P2
2022/10/09 00:00:35;;;;;;;10.60;7.35;;;;;;;4.57;100.00;102490.59;5345070;27;20028;-83
2022/10/09 00:03:07;;;;;;;12.77;7.70;;;;;;;4.66;100.00;102490.22;5336965;27;20111;-83
2022/10/09 00:05:38;;;;;;;23.92;9.93;;;;;;;4.54;100.00;102491.59;5321176;27;20465;-83
2022/10/09 00:08:10;;;;;;;16.48;8.75;;;;;;;4.60;100.00;102494.91;5341075;27;20012;-83
2022/10/09 00:10:42;;;;;;;14.32;8.45;;;;;;;4.70;100.00;102486.53;5334255;27;20052;-83
2022/10/09 00:13:14;;;;;;;10.70;7.80;;;;;;;4.35;100.00;102494.09;5338250;27;20389;-83
2022/10/09 00:15:46;;;;;;;17.70;7.53;;;;;;;4.39;100.00;102476.34;5337290;27;20031;-83
2022/10/09 00:18:18;;;;;;;12.93;6.85;;;;;;;4.28;100.00;102478.56;5322294;27;20100;-83
2022/10/09 00:20:49;;;;;;;16.77;9.40;;;;;;;4.23;100.00;102462.91;5342394;27;20746;-83
2022/10/09 00:23:21;;;;;;;15.73;8.48;;;;;;;4.17;100.00;102500.09;5341606;27;20027;-83
2022/10/09 00:25:57;;;;;;;17.13;7.95;;;;;;;3.97;100.00;102462.16;5340287;27;20031;-83
2022/10/09 00:28:30;;;;;;;15.52;8.40;;;;;;;4.06;100.00;102479.41;5348672;27;20024;-82
2022/10/09 00:31:06;;;;;;;17.10;8.23;;;;;;;3.96;100.00;102472.75;5345555;27;20020;-83
2022/10/09 00:33:38;;;;;;;14.63;8.13;;;;;;;3.96;100.00;102480.69;5348150;27;20389;-83
2022/10/09 00:36:16;;;;;;;18.08;8.60;;;;;;;3.86;100.00;102493.41;5343207;27;20023;-84
2022/10/09 00:38:48;;;;;;;19.45;8.65;;;;;;;3.73;100.00;102482.41;5334094;27;20412;-83
2022/10/09 00:41:22;;;;;;;13.38;7.53;;;;;;;3.58;100.00;102469.81;5347384;27;20031;-82
2022/10/09 00:43:57;;;;;;;14.95;8.27;;;;;;;3.75;100.00;102487.66;5348714;27;20024;-82
2022/10/09 00:46:48;;;;;;;10.48;7.28;;;;;;;3.67;100.00;102493.22;5342007;27;20077;-83
2022/10/09 00:49:30;;;;;;;14.43;7.00;;;;;;;3.68;100.00;102488.78;5340607;27;20024;-83
2022/10/09 00:52:05;;;;;;;16.65;7.72;;;;;;;3.56;100.00;102480.44;5321898;27;20032;-82
2022/10/09 00:54:40;;;;;;;11.32;7.97;;;;;;;3.45;100.00;102466.75;5344069;27;20024;-83
2022/10/09 00:57:11;;;;;;;14.90;8.07;;;;;;;3.57;100.00;102482.13;5343057;27;21338;-83
2022/10/09 00:59:43;;;;;;;18.00;8.50;;;;;;;3.57;100.00;102478.66;5343258;27;20084;-83
2022/10/09 01:02:14;;;;;;;13.07;7.55;;;;;;;3.46;100.00;102483.47;5341184;27;20048;-83
2022/10/09 01:04:46;;;;;;;17.52;7.50;;;;;;;3.59;100.00;102482.09;5324489;27;20028;-83
2022/10/09 01:07:34;;;;;;;14.55;8.30;;;;;;;3.56;100.00;102484.84;5325723;27;20510;-83
2022/10/09 01:10:39;;;;;;;21.40;10.40;;;;;;;3.73;100.00;102482.41;5344510;27;20027;-83
2022/10/09 01:13:37;;;;;;;17.45;9.13;;;;;;;3.71;100.00;102483.41;5297126;28;20043;-83
2022/10/09 01:16:24;;;;;;;23.63;9.20;;;;;;;3.73;100.00;102489.50;5275293;28;20036;-83
2022/10/09 01:19:15;;;;;;;18.80;8.80;;;;;;;3.86;100.00;102481.97;5295466;28;20467;-83
2022/10/09 01:22:02;;;;;;;22.90;12.55;;;;;;;3.95;100.00;102485.13;5295145;28;20037;-83
2022/10/09 01:24:41;;;;;;;18.65;10.43;;;;;;;4.18;100.00;102479.88;5299977;28;20032;-83
2022/10/09 01:27:20;;;;;;;252.40;31.42;;;;;;;3.96;100.00;102492.13;5299798;28;20028;-83
2022/10/09 01:30:00;;;;;;;1017.58;105.40;;;;;;;3.49;100.00;102473.66;5297692;28;20033;-83
2022/10/09 01:32:36;;;;;;;304.98;29.20;;;;;;;3.56;100.00;102485.72;5298233;28;20502;-82
2022/10/09 01:35:10;;;;;;;148.50;15.90;;;;;;;3.38;100.00;102479.34;5298173;28;20363;-83
2022/10/09 01:37:44;;;;;;;345.63;31.75;;;;;;;3.19;100.00;102459.78;5300236;28;20945;-83
2022/10/09 01:40:17;;;;;;;14.50;8.65;;;;;;;3.33;100.00;102472.50;5301204;28;20033;-83
2022/10/09 01:42:48;;;;;;;22.90;10.35;;;;;;;3.40;100.00;102464.31;5297768;28;20394;-83
2022/10/09 01:45:20;;;;;;;22.33;10.93;;;;;;;3.43;100.00;102463.31;5297537;28;20025;-83
2022/10/09 01:47:51;;;;;;;19.75;10.02;;;;;;;3.33;100.00;102467.22;5295686;28;20483;-83
2022/10/09 01:50:31;;;;;;;15.70;9.27;;;;;;;3.30;100.00;102457.66;5296793;28;20024;-83
2022/10/09 01:53:06;;;;;;;18.48;8.52;;;;;;;3.22;100.00;102449.16;5302525;28;20390;-82
2022/10/09 01:55:56;;;;;;;59.15;11.18;;;;;;;3.08;100.00;102454.91;5300145;28;20021;-82
2022/10/09 01:58:51;;;;;;;68.32;11.10;;;;;;;3.37;100.00;102456.50;5300986;28;20461;-82
2022/10/09 02:01:31;;;;;;;22.38;10.98;;;;;;;3.71;100.00;102451.75;5302486;28;20028;-82
2022/10/09 02:04:07;;;;;;;28.45;13.50;;;;;;;3.60;100.00;102446.88;5298093;28;20028;-82
2022/10/09 02:06:41;;;;;;;88.22;15.70;;;;;;;3.42;100.00;102419.41;5297080;28;20021;-82
2022/10/09 02:09:15;;;;;;;21.85;12.07;;;;;;;3.39;100.00;102428.28;5296667;28;20032;-83
2022/10/09 02:11:53;;;;;;;18.38;11.43;;;;;;;3.34;100.00;102432.88;5313051;27;20685;-82
2022/10/09 02:14:24;;;;;;;23.83;11.40;;;;;;;3.23;100.00;102424.50;5344127;27;20065;-82
2022/10/09 02:17:04;;;;;;;21.23;9.73;;;;;;;3.30;100.00;102444.47;5342058;27;20036;-82
2022/10/09 02:19:42;;;;;;;21.27;11.75;;;;;;;3.30;100.00;102438.34;5341638;27;20027;-82
2022/10/09 02:22:25;;;;;;;19.52;11.48;;;;;;;3.10;100.00;102428.50;5324152;27;21437;-82
2022/10/09 02:24:58;;;;;;;27.42;13.15;;;;;;;3.31;100.00;102432.97;5341821;27;20040;-82
2022/10/09 02:27:31;;;;;;;30.13;13.10;;;;;;;3.20;100.00;102437.78;5337554;27;20444;-81
2022/10/09 02:30:06;;;;;;;23.48;12.57;;;;;;;3.18;100.00;102424.66;5323386;27;20027;-82
2022/10/09 02:32:37;;;;;;;26.33;13.60;;;;;;;3.29;100.00;102421.63;5320445;27;20040;-82
2022/10/09 02:35:09;;;;;;;22.58;13.57;;;;;;;3.30;100.00;102427.78;5344527;27;20028;-82
2022/10/09 02:37:40;;;;;;;24.38;12.60;;;;;;;3.41;100.00;102426.44;5338678;27;20095;-82
2022/10/09 02:40:11;;;;;;;25.02;13.93;;;;;;;3.39;100.00;102416.88;5324635;27;20027;-82
2022/10/09 02:42:43;;;;;;;25.38;14.18;;;;;;;3.35;100.00;102407.38;5346229;27;20023;-82
2022/10/09 02:45:14;;;;;;;25.10;13.32;;;;;;;3.43;100.00;102429.03;5342630;27;20027;-82
2022/10/09 02:47:46;;;;;;;27.02;13.27;;;;;;;3.40;100.00;102430.03;5325075;27;20073;-82
2022/10/09 02:50:17;;;;;;;27.75;12.85;;;;;;;3.36;100.00;102415.19;5338964;27;20478;-81
2022/10/09 02:52:49;;;;;;;30.98;13.63;;;;;;;3.38;100.00;102412.50;5339714;27;20034;-82
2022/10/09 02:55:20;;;;;;;21.40;11.30;;;;;;;3.44;100.00;102430.75;5324742;27;20035;-82
2022/10/09 02:57:52;;;;;;;20.17;12.23;;;;;;;3.69;100.00;102425.41;5320545;27;20027;-82
2022/10/09 03:00:23;;;;;;;22.50;14.55;;;;;;;3.58;100.00;102422.34;5341171;27;20072;-82
2022/10/09 03:02:55;;;;;;;28.17;13.90;;;;;;;3.46;100.00;102407.81;5337164;27;20035;-82
2022/10/09 03:05:26;;;;;;;29.38;14.07;;;;;;;3.38;100.00;102404.59;5342371;27;20028;-82
2022/10/09 03:07:57;;;;;;;23.08;14.00;;;;;;;3.29;100.00;102404.94;5339823;27;20035;-82
2022/10/09 03:10:29;;;;;;;27.17;14.10;;;;;;;3.35;100.00;102399.47;5335272;27;20031;-82
2022/10/09 03:13:00;;;;;;;31.77;14.82;;;;;;;3.46;100.00;102412.25;5340493;27;20549;-82
2022/10/09 03:15:36;;;;;;;26.33;14.63;;;;;;;3.32;100.00;102400.41;5338240;27;20366;-82
2022/10/09 03:18:07;;;;;;;23.88;14.10;;;;;;;3.24;100.00;102394.56;5320074;27;20039;-82
2022/10/09 03:20:39;;;;;;;24.95;14.55;;;;;;;3.31;100.00;102409.25;5321483;27;20023;-82
2022/10/09 03:23:11;;;;;;;28.05;15.15;;;;;;;3.33;100.00;102401.28;5338220;27;20016;-83
2022/10/09 03:25:42;;;;;;;24.42;14.63;;;;;;;3.31;100.00;102398.69;5341379;27;20056;-83
2022/10/09 03:28:14;;;;;;;26.20;15.32;;;;;;;3.39;100.00;102414.25;5334946;27;20027;-83
2022/10/09 03:30:45;;;;;;;28.27;14.57;;;;;;;3.34;100.00;102409.13;5341389;27;20085;-82
2022/10/09 03:33:17;;;;;;;22.92;15.07;;;;;;;3.35;100.00;102387.13;5340869;27;20047;-82
2022/10/09 03:35:49;;;;;;;26.73;14.25;;;;;;;3.46;100.00;102413.09;5340370;27;20028;-82
2022/10/09 03:38:20;;;;;;;30.33;14.73;;;;;;;3.35;100.00;102408.22;5339967;27;20016;-82
2022/10/09 03:40:52;;;;;;;29.67;14.55;;;;;;;3.16;100.00;102392.22;5323599;27;20027;-82
2022/10/09 03:43:23;;;;;;;28.05;14.07;;;;;;;3.22;100.00;102388.50;5338599;27;20031;-82
2022/10/09 03:45:55;;;;;;;20.70;12.65;;;;;;;3.10;100.00;102392.44;5342605;27;20031;-83
2022/10/09 03:48:26;;;;;;;21.75;12.60;;;;;;;3.01;100.00;102404.16;5342746;27;20024;-83
2022/10/09 03:50:58;;;;;;;20.63;13.27;;;;;;;2.92;100.00;102396.59;5344804;27;20024;-82
2022/10/09 03:53:29;;;;;;;19.52;11.75;;;;;;;2.68;100.00;102385.16;5345535;27;20024;-82
2022/10/09 03:56:01;;;;;;;19.60;10.88;;;;;;;2.64;100.00;102381.75;5326868;27;20084;-83
2022/10/09 03:58:32;;;;;;;21.77;11.05;;;;;;;2.55;100.00;102397.03;5345190;27;20020;-83
2022/10/09 04:01:04;;;;;;;112.45;14.80;;;;;;;2.45;100.00;102410.53;5344381;27;20016;-82
2022/10/09 04:03:35;;;;;;;242.93;23.70;;;;;;;2.43;100.00;102406.22;5343762;27;20385;-83
2022/10/09 04:06:07;;;;;;;18.85;9.18;;;;;;;2.39;100.00;102412.50;5344544;27;20036;-83
2022/10/09 04:08:38;;;;;;;223.60;21.88;;;;;;;2.22;100.00;102407.78;5339822;27;20024;-82
2022/10/09 04:11:10;;;;;;;18.33;11.30;;;;;;;2.36;100.00;102410.81;5326046;27;20044;-83
2022/10/09 04:13:41;;;;;;;27.45;12.95;;;;;;;2.37;100.00;102412.56;5344926;27;20154;-83
2022/10/09 04:16:13;;;;;;;24.50;12.98;;;;;;;2.27;100.00;102396.19;5339541;27;20028;-82
2022/10/09 04:18:44;;;;;;;20.85;12.15;;;;;;;2.29;100.00;102388.22;5341890;27;20078;-82
2022/10/09 04:21:16;;;;;;;26.25;13.85;;;;;;;2.38;100.00;102408.13;5332307;27;20031;-83
2022/10/09 04:23:47;;;;;;;26.10;13.50;;;;;;;2.32;100.00;102390.78;5320007;27;20394;-83
2022/10/09 04:26:18;;;;;;;28.27;13.35;;;;;;;2.20;100.00;102393.81;5342281;27;20028;-83
2022/10/09 04:28:50;;;;;;;18.75;11.98;;;;;;;2.32;100.00;102405.72;5339674;27;20031;-83
2022/10/09 04:31:21;;;;;;;20.45;11.63;;;;;;;2.20;100.00;102413.09;5324907;27;20111;-83
2022/10/09 04:33:56;;;;;;;24.50;13.18;;;;;;;2.08;100.00;102392.44;5344464;27;20396;-83
2022/10/09 04:36:27;;;;;;;27.30;12.65;;;;;;;2.20;100.00;102407.81;5342001;27;20088;-83
2022/10/09 04:38:59;;;;;;;26.45;12.32;;;;;;;2.25;100.00;102398.00;5343697;27;20031;-83
2022/10/09 04:41:30;;;;;;;20.35;11.40;;;;;;;2.17;100.00;102397.38;5340229;27;20512;-82
2022/10/09 04:44:02;;;;;;;19.27;10.85;;;;;;;1.89;100.00;102360.56;5344366;27;20034;-83
2022/10/09 04:46:33;;;;;;;24.00;12.85;;;;;;;2.04;100.00;102401.34;5343976;27;20126;-83
2022/10/09 04:49:05;;;;;;;21.48;13.15;;;;;;;2.10;100.00;102397.66;5320921;27;20030;-83
2022/10/09 04:51:36;;;;;;;23.83;12.70;;;;;;;1.65;100.00;102363.09;5341777;27;20129;-82
2022/10/09 04:54:08;;;;;;;23.25;11.60;;;;;;;1.80;100.00;102374.03;5345358;27;20032;-83
2022/10/09 04:56:39;;;;;;;22.95;11.70;;;;;;;1.60;100.00;102359.72;5343396;27;20497;-83
2022/10/09 04:59:11;;;;;;;19.95;11.48;;;;;;;1.78;100.00;102391.63;5342157;27;20077;-82
2022/10/09 05:01:43;;;;;;;19.90;12.43;;;;;;;1.68;100.00;102381.41;5344824;27;20085;-83
2022/10/09 05:04:14;;;;;;;22.35;11.85;;;;;;;1.59;100.00;102370.28;5322629;27;20130;-83
2022/10/09 05:06:45;;;;;;;22.52;11.23;;;;;;;1.83;100.00;102389.72;5342632;27;20389;-82
2022/10/09 05:09:17;;;;;;;20.23;10.50;;;;;;;1.72;100.00;102378.66;5342509;27;20480;-82
2022/10/09 05:11:49;;;;;;;24.27;11.85;;;;;;;1.75;100.00;102370.69;5343781;27;20039;-82
2022/10/09 05:14:21;;;;;;;19.92;10.70;;;;;;;1.72;100.00;102349.72;5344730;27;20031;-82
2022/10/09 05:16:52;;;;;;;26.63;12.82;;;;;;;1.89;100.00;102376.38;5343124;27;20047;-82
2022/10/09 05:19:23;;;;;;;25.15;13.70;;;;;;;1.97;100.00;102382.25;5324033;27;20126;-82
2022/10/09 05:21:55;;;;;;;23.08;13.55;;;;;;;1.84;100.00;102371.25;5345501;27;20437;-82
2022/10/09 05:24:27;;;;;;;22.88;13.68;;;;;;;1.75;100.00;102361.00;5347073;27;20028;-82
2022/10/09 05:26:59;;;;;;;20.55;12.98;;;;;;;1.76;100.00;102373.28;5340649;27;20030;-83
2022/10/09 05:29:31;;;;;;;26.23;13.57;;;;;;;1.60;100.00;102351.84;5340372;27;20059;-83
2022/10/09 05:32:05;;;;;;;25.20;13.63;;;;;;;1.74;100.00;102369.81;5339671;27;20039;-82
2022/10/09 05:34:36;;;;;;;24.80;15.13;;;;;;;1.77;100.00;102351.31;5344203;27;20023;-83
2022/10/09 05:37:08;;;;;;;24.20;14.70;;;;;;;1.93;100.00;102371.84;5341360;27;20034;-82
2022/10/09 05:39:39;;;;;;;25.70;14.15;;;;;;;-145.45;100.00;62759.84;5344287;27;20024;-82
2022/10/09 05:42:11;;;;;;;21.77;14.10;;;;;;;-145.45;100.00;62759.84;5319201;27;27066;-82
2022/10/09 05:44:42;;;;;;;28.60;14.68;;;;;;;-145.45;100.00;62759.84;5322960;27;153832;-83
2022/10/09 05:47:16;;;;;;;24.55;14.13;;;;;;;-145.45;100.00;62759.84;5048497;27;9760367;-82
2022/10/09 05:49:48;;;;;;;26.38;14.02;;;;;;;-145.45;100.00;62759.84;5344735;27;21559;-80
2022/10/09 05:52:19;;;;;;;32.70;14.07;;;;;;;-145.45;100.00;62759.84;5330892;27;20494;-82
2022/10/09 05:54:50;;;;;;;27.17;13.85;;;;;;;-145.45;100.00;62759.84;5327404;27;20071;-83
2022/10/09 05:57:22;;;;;;;28.85;13.48;;;;;;;-145.45;100.00;62759.84;5307471;28;20520;-82
2022/10/09 05:59:53;;;;;;;24.98;13.85;;;;;;;-145.45;100.00;62759.84;5321146;27;20446;-82
2022/10/09 06:02:25;;;;;;;29.92;14.57;;;;;;;2.34;100.00;102364.38;5346702;27;20043;-82
2022/10/09 06:04:56;;;;;;;22.60;14.07;;;;;;;2.24;100.00;102351.53;5342079;27;20028;-82
2022/10/09 06:07:28;;;;;;;21.27;11.45;;;;;;;2.82;100.00;102367.09;5342694;27;20020;-82
2022/10/09 06:09:59;;;;;;;27.70;14.70;;;;;;;2.86;100.00;102362.56;5342328;27;20028;-82
2022/10/09 06:12:31;;;;;;;187.70;23.23;;;;;;;3.16;100.00;102362.38;5341124;27;20044;-82
2022/10/09 06:15:03;;;;;;;26.23;14.57;;;;;;;3.20;100.00;102353.41;5347247;27;20031;-82
2022/10/09 06:17:34;;;;;;;28.23;14.63;;;;;;;-145.45;100.00;62759.84;4741338;27;6032366;-82
2022/10/09 06:23:48;;;;;;;21.05;10.10;;;;;;;-145.45;100.00;62759.84;2838108;27;85562413;-82
2022/10/09 06:27:18;;;;;;;;;;;;;;;-145.45;100.00;62759.84;4;34238697;79621847;-83
2022/10/09 06:30:24;;;;;;;28.50;15.60;;;;;;;-145.45;100.00;62759.84;266093;27;36983936;-83
2022/10/09 06:33:01;;;;;;;34.28;18.08;;;;;;;-145.45;100.00;62759.84;1077964;28;49452584;-82
2022/10/09 06:36:14;;;;;;;21.53;15.13;;;;;;;-145.45;100.00;62759.84;459046;28;72361361;-82
2022/10/09 06:40:26;;;;;;;;;;;;;;;-145.45;100.00;62759.84;490647;27;58100783;-82
2022/10/09 06:44:28;;;;;;;;;;;;;;;-145.45;100.00;62759.84;992989;27;39463729;-82
2022/10/09 06:46:59;;;;;;;32.47;19.75;;;;;;;3.83;100.00;102381.78;2542038;27;21051605;-82
2022/10/09 06:49:31;;;;;;;36.78;20.63;;;;;;;3.87;100.00;102383.38;5338433;27;20499;-82
2022/10/09 06:52:02;;;;;;;35.33;21.52;;;;;;;3.87;100.00;102370.16;5346217;27;20035;-82
2022/10/09 06:54:34;;;;;;;38.20;22.20;;;;;;;3.94;100.00;102367.25;5347165;27;20019;-81
2022/10/09 06:57:06;;;;;;;136.82;34.63;;;;;;;4.46;100.00;102363.34;5348556;27;20456;-83
2022/10/09 06:59:37;;;;;;;388.23;65.55;;;;;;;5.83;100.00;102373.84;5343579;27;20058;-83
2022/10/09 07:02:08;;;;;;;1999.90;685.75;;;;;;;6.23;100.00;102355.16;5331647;27;20038;-83
2022/10/09 07:04:40;;;;;;;579.47;81.75;;;;;;;7.52;100.00;102379.31;5347298;27;20053;-82
2022/10/09 07:07:11;;;;;;;1999.90;281.30;;;;;;;8.45;100.00;102390.88;5344771;27;20098;-82
2022/10/09 07:12:27;;;;;;;;;;;;;;;-145.45;nan;62759.84;3050369;27;84829884;-83
2022/10/09 07:14:58;;;;;;;32.70;23.07;;;;;;;9.26;100.00;102374.44;4377509;27;15824881;-82
2022/10/09 07:17:31;;;;;;;28.05;19.90;;;;;;;9.41;100.00;102388.59;5348735;27;20246;-84
2022/10/09 07:20:02;;;;;;;30.70;15.63;;;;;;;10.37;100.00;102381.44;5344962;27;20039;-83
2022/10/09 07:22:34;;;;;;;16.75;11.40;;;;;;;10.48;100.00;102383.38;5325999;27;20357;-83
2022/10/09 07:25:06;;;;;;;11.63;9.23;;;;;;;11.13;100.00;102369.13;5348130;27;20031;-83
2022/10/09 07:27:38;;;;;;;14.18;7.75;;;;;;;12.29;100.00;102374.06;5346712;27;20023;-83
2022/10/09 07:30:10;;;;;;;10.48;6.88;;;;;;;13.24;100.00;102384.56;5228046;27;3082181;-83
2022/10/09 07:32:41;;;;;;;10.25;6.50;;;;;;;14.17;100.00;102378.75;5335774;27;309894;-82
2022/10/09 07:35:12;;;;;;;12.07;5.90;;;;;;;14.36;100.00;102385.28;5345510;27;20154;-83
2022/10/09 07:37:44;;;;;;;8.88;5.25;;;;;;;14.21;100.00;102386.56;5323777;27;20016;-83
2022/10/09 07:40:15;;;;;;;9.45;4.75;;;;;;;15.03;100.00;102375.13;5345850;27;20028;-83
2022/10/09 07:42:47;;;;;;;6.95;4.18;;;;;;;16.30;100.00;102351.16;5324479;27;20051;-83
2022/10/09 07:45:18;;;;;;;10.00;4.75;;;;;;;17.00;100.00;102357.09;5325281;27;20032;-83
2022/10/09 07:47:50;;;;;;;8.80;4.53;;;;;;;17.36;100.00;102358.06;5345354;27;20477;-83
2022/10/09 07:50:21;;;;;;;8.55;4.38;;;;;;;16.91;100.00;102358.84;5345372;27;20028;-83
2022/10/09 07:52:52;;;;;;;7.53;4.30;;;;;;;17.70;100.00;102353.88;5345378;27;20027;-83
2022/10/09 07:55:24;;;;;;;9.80;4.20;;;;;;;18.23;100.00;102365.72;5344753;27;20103;-84
2022/10/09 07:57:56;;;;;;;7.45;4.40;;;;;;;18.02;100.00;102355.22;5345034;27;20043;-84
2022/10/09 08:00:27;;;;;;;8.85;4.45;;;;;;;18.81;100.00;102362.44;5341444;27;20051;-83
2022/10/09 08:02:59;;;;;;;6.63;4.30;;;;;;;18.59;100.00;102352.16;5337222;27;20047;-82
2022/10/09 08:05:30;;;;;;;6.82;4.25;;;;;;;19.50;100.00;102350.75;5325712;27;20093;-82
2022/10/09 08:08:02;;;;;;;7.95;4.35;;;;;;;19.98;100.00;102338.31;5340436;27;20028;-82
2022/10/09 08:10:34;;;;;;;8.70;4.20;;;;;;;20.35;100.00;102345.94;5341823;27;20035;-82
2022/10/09 08:13:05;;;;;;;7.65;4.18;;;;;;;20.66;100.00;102311.88;5340107;27;20529;-82
2022/10/09 08:15:41;;;;;;;6.97;3.88;;;;;;;20.86;100.00;102332.16;5341905;27;20076;-83
2022/10/09 08:18:12;;;;;;;6.28;3.97;;;;;;;21.77;100.00;102346.13;5341663;27;20023;-82
2022/10/09 08:20:44;;;;;;;10.00;4.10;;;;;;;20.65;100.00;102346.28;5321876;27;20431;-83
2022/10/09 08:23:15;;;;;;;9.38;4.15;;;;;;;21.50;100.00;102332.03;5341329;27;20496;-82
2022/10/09 08:25:48;;;;;;;7.63;3.55;;;;;;;21.86;100.00;102338.75;5338546;27;20134;-83
2022/10/09 08:28:21;;;;;;;14.63;3.92;;;;;;;21.52;100.00;102340.00;5337228;27;20027;-83
2022/10/09 08:30:52;;;;;;;8.25;4.13;;;;;;;21.61;100.00;102325.34;5341485;27;20393;-82
2022/10/09 08:33:24;;;;;;;7.50;4.20;;;;;;;23.59;95.65;102319.53;5343946;27;20047;-82
2022/10/09 08:36:04;;;;;;;6.25;3.47;;;;;;;24.32;88.00;102329.47;5340063;27;20032;-81
2022/10/09 08:38:36;;;;;;;8.43;3.90;;;;;;;23.58;84.03;102333.38;5314257;27;20473;-83
2022/10/09 08:41:15;;;;;;;9.20;3.88;;;;;;;24.29;76.81;102308.88;5338093;27;20053;-83
2022/10/09 08:43:52;;;;;;;8.18;4.00;;;;;;;25.64;68.54;102325.72;5321225;27;20659;-82
2022/10/09 08:46:46;;;;;;;6.97;4.07;;;;;;;26.15;65.28;102327.06;5338041;27;20044;-82
2022/10/09 08:49:49;;;;;;;10.38;4.20;;;;;;;26.22;65.98;102302.44;5344275;27;20046;-83
2022/10/09 08:52:45;;;;;;;8.55;4.05;;;;;;;26.69;62.84;102318.81;5323658;27;20028;-83
2022/10/09 08:55:26;;;;;;;9.68;3.80;;;;;;;26.98;55.35;102306.50;5345607;27;20441;-84
2022/10/09 08:58:04;;;;;;;5.85;3.70;;;;;;;27.26;56.22;102308.03;5344892;27;20076;-82
2022/10/09 09:00:43;;;;;;;6.10;3.30;;;;;;;28.23;47.58;102307.84;5343770;27;20028;-83
2022/10/09 09:03:36;;;;;;;12.43;3.80;;;;;;;27.94;54.69;102307.44;5347249;27;20054;-82
2022/10/09 09:06:26;;;;;;;8.32;4.05;;;;;;;27.34;56.70;102285.91;5344877;27;20036;-82
2022/10/09 09:09:03;;;;;;;4.95;3.17;;;;;;;28.49;44.93;102295.75;5323429;27;20032;-83
2022/10/09 09:11:55;;;;;;;7.45;3.45;;;;;;;30.58;50.04;102296.09;5347516;27;20043;-83
2022/10/09 09:14:45;;;;;;;8.52;3.72;;;;;;;31.47;40.61;102286.56;5344798;27;20044;-82
2022/10/09 09:17:35;;;;;;;6.32;3.22;;;;;;;31.69;41.65;102288.63;5326529;27;20027;-83
2022/10/09 09:20:31;;;;;;;8.77;3.60;;;;;;;31.86;36.45;102286.69;5347111;27;20051;-82
2022/10/09 09:23:12;;;;;;;9.13;3.45;;;;;;;31.25;33.81;102269.91;5344819;27;20039;-81
2022/10/09 09:25:45;;;;;;;9.25;3.65;;;;;;;30.56;34.13;102254.19;5346073;27;20020;-82
2022/10/09 09:28:26;;;;;;;10.98;3.88;;;;;;;30.06;36.29;102265.69;5326061;27;20023;-82
2022/10/09 09:31:07;;;;;;;9.35;4.00;;;;;;;31.70;32.88;102259.94;5347433;27;20019;-83
2022/10/09 09:33:58;;;;;;;7.30;3.42;;;;;;;29.94;36.95;102249.19;5343259;27;20158;-83
2022/10/09 09:36:51;;;;;;;8.18;3.35;;;;;;;31.42;35.59;102251.47;5335822;27;20136;-83
2022/10/09 09:39:27;;;;;;;6.68;3.05;;;;;;;30.11;35.53;102244.66;5340227;27;20384;-83
2022/10/09 09:42:21;;;;;;;9.98;3.03;;;;;;;29.31;37.51;102225.88;5341660;27;20027;-83
2022/10/09 09:45:01;;;;;;;6.78;2.75;;;;;;;31.33;32.96;102233.66;5340156;27;20554;-83
2022/10/09 09:47:41;;;;;;;7.65;3.17;;;;;;;30.13;33.84;102234.22;5342927;27;20050;-83
2022/10/09 09:50:13;;;;;;;6.90;3.20;;;;;;;31.05;32.51;102235.38;5338574;27;20108;-82
2022/10/09 09:52:45;;;;;;;5.57;2.85;;;;;;;29.92;32.29;102221.91;5342562;27;20040;-82
2022/10/09 09:55:26;;;;;;;9.90;4.00;;;;;;;31.59;31.38;102206.53;5337621;27;20131;-81
2022/10/09 09:58:00;;;;;;;5.00;2.58;;;;;;;30.63;32.98;102198.97;5332159;27;20043;-82
2022/10/09 10:00:33;;;;;;;6.32;2.78;;;;;;;31.48;30.24;102211.84;5331695;27;20123;-82
2022/10/09 10:03:15;;;;;;;7.47;2.95;;;;;;;33.07;29.31;102210.44;5338615;27;20496;-82
2022/10/09 10:05:47;;;;;;;8.90;3.20;;;;;;;32.68;28.11;102209.75;5339658;27;20042;-83
2022/10/09 10:08:29;;;;;;;7.03;3.15;;;;;;;33.87;27.88;102218.91;5341216;27;20023;-83
2022/10/09 10:11:04;;;;;;;7.47;4.07;;;;;;;32.88;27.64;102204.44;5319578;27;20489;-84
2022/10/09 10:13:45;;;;;;;12.07;6.03;;;;;;;34.29;27.79;102214.41;5317432;27;20050;-82
2022/10/09 10:16:25;;;;;;;7.90;2.72;;;;;;;32.81;28.50;102184.47;5340128;27;20026;-82
2022/10/09 10:18:57;;;;;;;5.93;2.50;;;;;;;30.82;29.64;102178.44;5339768;27;20035;-83
2022/10/09 10:21:46;;;;;;;8.15;3.08;;;;;;;32.67;29.42;102200.63;5336774;27;20020;-83
2022/10/09 10:24:21;;;;;;;8.60;3.05;;;;;;;33.00;28.69;102189.66;5341203;27;20038;-82
2022/10/09 10:26:56;;;;;;;;;;;;;;;35.91;26.16;102197.47;5338818;27;20035;-83
2022/10/09 10:29:41;;;;;;;7.18;2.50;;;;;;;35.11;26.69;102186.13;5335884;27;20417;-81
2022/10/09 10:32:33;;;;;;;6.07;2.75;;;;;;;35.01;27.82;102189.72;5335167;27;20385;-82
2022/10/09 10:35:18;;;;;;;6.10;2.72;;;;;;;36.00;24.93;102192.19;5338813;27;20028;-82
2022/10/09 10:37:54;;;;;;;6.88;2.58;;;;;;;34.74;26.10;102173.34;5338115;27;20039;-82
2022/10/09 10:40:40;;;;;;;5.28;2.42;;;;;;;35.63;25.46;102160.06;5321653;27;20034;-83
2022/10/09 10:43:36;;;;;;;5.85;2.67;;;;;;;35.29;25.59;102163.41;5337417;27;20052;-82
2022/10/09 10:46:14;;;;;;;8.20;2.63;;;;;;;35.37;25.11;102164.81;5337704;27;20497;-81
2022/10/09 10:48:46;;;;;;;7.45;2.20;;;;;;;35.58;23.22;102163.66;5339978;27;20277;-82
2022/10/09 10:51:41;;;;;;;6.78;2.50;;;;;;;37.10;22.56;102150.47;5337493;27;20619;-82
2022/10/09 10:54:39;;;;;;;6.38;2.47;;;;;;;36.41;25.01;102146.75;5337521;27;20442;-84
2022/10/09 10:57:19;;;;;;;4.97;2.05;;;;;;;36.98;21.03;102136.94;5340403;27;20432;-82
2022/10/09 11:00:05;;;;;;;4.32;2.30;;;;;;;36.67;21.64;102134.34;5334496;27;20028;-83
2022/10/09 11:03:02;;;;;;;5.75;1.67;;;;;;;34.74;24.97;102143.69;5318559;27;20035;-81
2022/10/09 11:05:37;;;;;;;7.60;2.25;;;;;;;34.76;22.65;102119.31;5335034;27;20043;-81
2022/10/09 11:08:27;;;;;;;7.03;1.90;;;;;;;34.59;24.05;102127.00;5340664;27;20024;-82
2022/10/09 11:11:11;;;;;;;3.90;1.92;;;;;;;33.86;25.41;102122.31;5337423;27;20429;-82
2022/10/09 11:13:46;;;;;;;5.38;2.17;;;;;;;34.94;23.61;102119.88;5322602;27;20079;-82
2022/10/09 11:16:32;;;;;;;5.30;2.13;;;;;;;34.65;24.14;102123.97;5342358;27;20067;-83
2022/10/09 11:19:22;;;;;;;;;;;;;;;38.33;20.53;102118.53;5338030;27;20824;-83
2022/10/09 11:22:23;;;;;;;5.82;2.20;;;;;;;35.36;23.41;102111.28;5340426;27;19912;-82
2022/10/09 11:25:07;;;;;;;5.72;2.20;;;;;;;36.01;21.87;102107.78;5341622;27;20034;-82
2022/10/09 11:27:53;;;;;;;6.78;2.13;;;;;;;33.34;26.30;102086.00;5341239;27;20028;-82
2022/10/09 11:30:27;;;;;;;3.90;1.95;;;;;;;31.29;32.39;102095.53;5323377;27;20012;-82
2022/10/09 11:33:04;;;;;;;6.95;2.85;;;;;;;32.09;27.23;102088.97;5324900;27;20046;-81
2022/10/09 11:36:00;;;;;;;4.43;2.00;;;;;;;35.25;23.80;102095.75;5333020;27;20036;-81
2022/10/09 11:38:58;;;;;;;5.70;2.50;;;;;;;36.00;22.53;102091.41;5330101;27;20481;-81
2022/10/09 11:41:30;;;;;;;5.35;2.33;;;;;;;36.27;21.35;102079.91;5334172;27;20419;-82
2022/10/09 11:44:39;;;;;;;7.40;2.40;;;;;;;36.50;23.03;102078.34;5336412;27;20411;-82
2022/10/09 11:47:23;;;;;;;8.85;2.45;;;;;;;37.07;21.48;102078.75;5343116;27;20402;-82
2022/10/09 11:50:13;;;;;;;5.90;2.08;;;;;;;37.10;22.28;102072.63;5335887;27;20937;-83
2022/10/09 11:53:01;;;;;;;7.30;2.75;;;;;;;36.66;22.26;102066.03;5337268;27;20805;-82
2022/10/09 11:55:33;;;;;;;6.85;2.30;;;;;;;35.46;22.14;102054.13;5334572;27;20040;-83
2022/10/09 11:58:24;;;;;;;6.43;2.50;;;;;;;34.63;24.53;102043.09;5341905;27;20031;-83
2022/10/09 12:01:10;;;;;;;6.85;2.20;;;;;;;35.17;23.14;102038.06;5317456;27;20055;-82
2022/10/09 12:03:42;;;;;;;5.82;2.38;;;;;;;33.86;24.39;102036.53;5312937;27;20067;-83
2022/10/09 12:06:16;;;;;;;4.78;2.05;;;;;;;33.60;23.73;102033.63;5341815;27;20015;-82